sensor_id;sensor_type;location;lat;lon;timestamp;temperature;humidity
12948;DHT22;6539;49.476;8.484;2023-04-03T00:01:07;7.70;99.90
12948;DHT22;6539;49.476;8.484;2023-04-03T00:03:34;7.80;99.90
12948;DHT22;6539;49.476;8.484;2023-04-03T00:06:03;7.70;99.90
12948;DHT22;6539;49.476;8.484;2023-04-03T00:08:31;7.70;99.90
12948;DHT22;6539;49.476;8.484;2023-04-03T00:10:58;7.70;99.90
12948;DHT22;6539;49.476;8.484;2023-04-03T00:13:24;7.70;99.90
12948;DHT22;6539;49.476;8.484;2023-04-03T00:15:53;7.80;99.90
12948;DHT22;6539;49.476;8.484;2023-04-03T00:18:21;7.70;99.90
12948;DHT22;6539;49.476;8.484;2023-04-03T00:20:52;7.50;99.90
12948;DHT22;6539;49.476;8.484;2023-04-03T00:23:18;7.70;99.90
12948;DHT22;6539;49.476;8.484;2023-04-03T00:25:44;7.60;99.90
12948;DHT22;6539;49.476;8.484;2023-04-03T00:28:09;7.60;99.90
12948;DHT22;6539;49.476;8.484;2023-04-03T00:30:35;7.60;99.90
12948;DHT22;6539;49.476;8.484;2023-04-03T00:33:01;7.60;99.90
12948;DHT22;6539;49.476;8.484;2023-04-03T00:35:29;7.70;99.90
12948;DHT22;6539;49.476;8.484;2023-04-03T00:37:56;7.60;99.90
12948;DHT22;6539;49.476;8.484;2023-04-03T00:40:24;7.70;99.90
12948;DHT22;6539;49.476;8.484;2023-04-03T00:42:56;7.60;99.90
12948;DHT22;6539;49.476;8.484;2023-04-03T00:45:40;7.60;99.90
12948;DHT22;6539;49.476;8.484;2023-04-03T00:48:20;7.60;99.90
12948;DHT22;6539;49.476;8.484;2023-04-03T00:50:47;7.60;99.90
12948;DHT22;6539;49.476;8.484;2023-04-03T00:53:21;7.60;99.90
12948;DHT22;6539;49.476;8.484;2023-04-03T00:55:51;7.50;99.90
12948;DHT22;6539;49.476;8.484;2023-04-03T00:58:32;7.50;99.90
12948;DHT22;6539;49.476;8.484;2023-04-03T01:01:10;7.40;99.90
12948;DHT22;6539;49.476;8.484;2023-04-03T01:03:40;7.40;99.90
12948;DHT22;6539;49.476;8.484;2023-04-03T01:06:06;7.30;99.90
12948;DHT22;6539;49.476;8.484;2023-04-03T01:08:32;7.40;99.90
12948;DHT22;6539;49.476;8.484;2023-04-03T01:10:59;7.30;99.90
12948;DHT22;6539;49.476;8.484;2023-04-03T01:13:29;7.30;99.90
12948;DHT22;6539;49.476;8.484;2023-04-03T01:16:05;7.30;99.90
12948;DHT22;6539;49.476;8.484;2023-04-03T01:18:32;7.30;99.90
12948;DHT22;6539;49.476;8.484;2023-04-03T01:24:40;7.30;99.90
12948;DHT22;6539;49.476;8.484;2023-04-03T01:27:11;7.20;99.90
12948;DHT22;6539;49.476;8.484;2023-04-03T01:29:37;7.20;99.90
12948;DHT22;6539;49.476;8.484;2023-04-03T01:32:07;7.20;99.90
12948;DHT22;6539;49.476;8.484;2023-04-03T01:34:33;7.10;99.90
12948;DHT22;6539;49.476;8.484;2023-04-03T01:36:59;7.10;99.90
12948;DHT22;6539;49.476;8.484;2023-04-03T01:39:27;7.00;99.90
12948;DHT22;6539;49.476;8.484;2023-04-03T01:41:52;6.90;99.90
12948;DHT22;6539;49.476;8.484;2023-04-03T01:44:23;7.00;99.90
12948;DHT22;6539;49.476;8.484;2023-04-03T01:46:48;7.10;99.90
12948;DHT22;6539;49.476;8.484;2023-04-03T01:49:14;7.10;99.90
12948;DHT22;6539;49.476;8.484;2023-04-03T01:51:40;7.10;99.90
12948;DHT22;6539;49.476;8.484;2023-04-03T01:54:08;7.00;99.90
12948;DHT22;6539;49.476;8.484;2023-04-03T01:56:38;6.90;99.90
12948;DHT22;6539;49.476;8.484;2023-04-03T01:59:04;7.00;99.90
12948;DHT22;6539;49.476;8.484;2023-04-03T02:01:32;7.00;99.90
12948;DHT22;6539;49.476;8.484;2023-04-03T02:03:58;6.90;99.90
12948;DHT22;6539;49.476;8.484;2023-04-03T02:06:26;7.00;99.90
12948;DHT22;6539;49.476;8.484;2023-04-03T02:08:54;7.00;99.90
12948;DHT22;6539;49.476;8.484;2023-04-03T02:11:20;7.00;99.90
12948;DHT22;6539;49.476;8.484;2023-04-03T02:13:48;6.90;99.90
12948;DHT22;6539;49.476;8.484;2023-04-03T02:16:16;6.80;99.90
12948;DHT22;6539;49.476;8.484;2023-04-03T02:18:45;6.80;99.90
12948;DHT22;6539;49.476;8.484;2023-04-03T02:21:10;6.80;99.90
12948;DHT22;6539;49.476;8.484;2023-04-03T02:23:36;6.40;99.90
12948;DHT22;6539;49.476;8.484;2023-04-03T02:26:10;6.70;99.90
12948;DHT22;6539;49.476;8.484;2023-04-03T02:28:40;6.50;99.90
12948;DHT22;6539;49.476;8.484;2023-04-03T02:31:07;6.60;99.90
12948;DHT22;6539;49.476;8.484;2023-04-03T02:33:34;6.80;99.90
12948;DHT22;6539;49.476;8.484;2023-04-03T02:36:05;6.30;99.90
12948;DHT22;6539;49.476;8.484;2023-04-03T02:38:32;6.50;99.90
12948;DHT22;6539;49.476;8.484;2023-04-03T02:41:03;6.60;99.90
12948;DHT22;6539;49.476;8.484;2023-04-03T02:43:30;6.70;99.90
12948;DHT22;6539;49.476;8.484;2023-04-03T02:45:56;6.60;99.90
12948;DHT22;6539;49.476;8.484;2023-04-03T02:48:23;6.50;99.90
12948;DHT22;6539;49.476;8.484;2023-04-03T02:50:51;6.60;99.90
12948;DHT22;6539;49.476;8.484;2023-04-03T02:53:18;6.40;99.90
12948;DHT22;6539;49.476;8.484;2023-04-03T02:55:46;6.40;99.90
12948;DHT22;6539;49.476;8.484;2023-04-03T02:58:15;6.50;99.90
12948;DHT22;6539;49.476;8.484;2023-04-03T03:00:45;6.40;99.90
12948;DHT22;6539;49.476;8.484;2023-04-03T03:03:13;6.40;99.90
12948;DHT22;6539;49.476;8.484;2023-04-03T03:05:40;6.30;99.90
12948;DHT22;6539;49.476;8.484;2023-04-03T03:08:06;6.30;99.90
12948;DHT22;6539;49.476;8.484;2023-04-03T03:10:34;6.30;99.90
12948;DHT22;6539;49.476;8.484;2023-04-03T03:12:59;6.30;99.90
12948;DHT22;6539;49.476;8.484;2023-04-03T03:15:27;6.20;99.90
12948;DHT22;6539;49.476;8.484;2023-04-03T03:17:53;6.30;99.90
12948;DHT22;6539;49.476;8.484;2023-04-03T03:20:24;6.30;99.90
12948;DHT22;6539;49.476;8.484;2023-04-03T03:22:52;6.20;99.90
12948;DHT22;6539;49.476;8.484;2023-04-03T03:25:20;6.20;99.90
12948;DHT22;6539;49.476;8.484;2023-04-03T03:27:46;6.20;99.90
12948;DHT22;6539;49.476;8.484;2023-04-03T03:30:14;6.20;99.90
12948;DHT22;6539;49.476;8.484;2023-04-03T03:32:40;6.20;99.90
12948;DHT22;6539;49.476;8.484;2023-04-03T03:35:06;6.20;99.90
12948;DHT22;6539;49.476;8.484;2023-04-03T03:37:34;6.20;99.90
12948;DHT22;6539;49.476;8.484;2023-04-03T03:40:02;6.20;99.90
12948;DHT22;6539;49.476;8.484;2023-04-03T03:42:28;6.10;99.90
12948;DHT22;6539;49.476;8.484;2023-04-03T03:44:54;6.10;99.90
12948;DHT22;6539;49.476;8.484;2023-04-03T03:47:20;6.00;99.90
12948;DHT22;6539;49.476;8.484;2023-04-03T03:49:46;6.10;99.90
12948;DHT22;6539;49.476;8.484;2023-04-03T03:52:12;6.10;99.90
12948;DHT22;6539;49.476;8.484;2023-04-03T03:54:37;6.10;99.90
12948;DHT22;6539;49.476;8.484;2023-04-03T03:57:05;6.00;99.90
12948;DHT22;6539;49.476;8.484;2023-04-03T03:59:33;6.00;99.90
12948;DHT22;6539;49.476;8.484;2023-04-03T04:02:07;6.00;99.90
12948;DHT22;6539;49.476;8.484;2023-04-03T04:04:35;6.00;99.90
12948;DHT22;6539;49.476;8.484;2023-04-03T04:07:04;6.00;99.90
12948;DHT22;6539;49.476;8.484;2023-04-03T04:09:30;6.00;99.90
12948;DHT22;6539;49.476;8.484;2023-04-03T04:11:55;6.10;99.90
12948;DHT22;6539;49.476;8.484;2023-04-03T04:14:23;5.90;99.90
12948;DHT22;6539;49.476;8.484;2023-04-03T04:16:49;5.90;99.90
12948;DHT22;6539;49.476;8.484;2023-04-03T04:19:17;6.00;99.90
12948;DHT22;6539;49.476;8.484;2023-04-03T04:21:43;6.10;99.90
12948;DHT22;6539;49.476;8.484;2023-04-03T04:24:09;5.90;99.90
12948;DHT22;6539;49.476;8.484;2023-04-03T04:26:35;6.10;99.90
12948;DHT22;6539;49.476;8.484;2023-04-03T04:29:01;6.00;99.90
12948;DHT22;6539;49.476;8.484;2023-04-03T04:31:29;6.10;99.90
12948;DHT22;6539;49.476;8.484;2023-04-03T04:33:57;5.90;99.90
12948;DHT22;6539;49.476;8.484;2023-04-03T04:36:26;5.80;99.90
12948;DHT22;6539;49.476;8.484;2023-04-03T04:38:54;5.80;99.90
12948;DHT22;6539;49.476;8.484;2023-04-03T04:41:25;5.80;99.90
12948;DHT22;6539;49.476;8.484;2023-04-03T04:43:51;5.80;99.90
12948;DHT22;6539;49.476;8.484;2023-04-03T04:46:18;5.80;99.90
12948;DHT22;6539;49.476;8.484;2023-04-03T04:48:46;5.80;99.90
12948;DHT22;6539;49.476;8.484;2023-04-03T04:51:12;5.80;99.90
12948;DHT22;6539;49.476;8.484;2023-04-03T04:53:37;5.80;99.90
12948;DHT22;6539;49.476;8.484;2023-04-03T04:56:07;5.80;99.90
12948;DHT22;6539;49.476;8.484;2023-04-03T04:58:33;5.90;99.90
12948;DHT22;6539;49.476;8.484;2023-04-03T05:01:00;5.80;99.90
12948;DHT22;6539;49.476;8.484;2023-04-03T05:03:28;5.80;99.90
12948;DHT22;6539;49.476;8.484;2023-04-03T05:05:54;5.80;99.90
12948;DHT22;6539;49.476;8.484;2023-04-03T05:08:23;5.80;99.90
12948;DHT22;6539;49.476;8.484;2023-04-03T05:10:52;5.70;99.90
12948;DHT22;6539;49.476;8.484;2023-04-03T05:13:19;5.70;99.90
12948;DHT22;6539;49.476;8.484;2023-04-03T05:15:46;5.70;99.90
12948;DHT22;6539;49.476;8.484;2023-04-03T05:18:14;5.80;99.90
12948;DHT22;6539;49.476;8.484;2023-04-03T05:20:40;5.80;99.90
12948;DHT22;6539;49.476;8.484;2023-04-03T05:23:06;5.80;99.90
12948;DHT22;6539;49.476;8.484;2023-04-03T05:25:32;5.80;99.90
12948;DHT22;6539;49.476;8.484;2023-04-03T05:27:58;5.90;99.90
12948;DHT22;6539;49.476;8.484;2023-04-03T05:30:26;5.90;99.90
12948;DHT22;6539;49.476;8.484;2023-04-03T05:32:52;5.90;99.90
12948;DHT22;6539;49.476;8.484;2023-04-03T05:35:18;6.10;99.90
12948;DHT22;6539;49.476;8.484;2023-04-03T05:37:46;6.20;99.90
12948;DHT22;6539;49.476;8.484;2023-04-03T05:40:14;6.20;99.90
12948;DHT22;6539;49.476;8.484;2023-04-03T05:42:43;6.10;99.90
12948;DHT22;6539;49.476;8.484;2023-04-03T05:45:12;6.10;99.90
12948;DHT22;6539;49.476;8.484;2023-04-03T05:47:42;6.20;99.90
12948;DHT22;6539;49.476;8.484;2023-04-03T05:50:10;6.10;99.90
12948;DHT22;6539;49.476;8.484;2023-04-03T05:52:38;6.10;99.90
12948;DHT22;6539;49.476;8.484;2023-04-03T05:55:08;6.10;99.90
12948;DHT22;6539;49.476;8.484;2023-04-03T05:57:36;6.20;99.90
12948;DHT22;6539;49.476;8.484;2023-04-03T06:00:05;6.20;99.90
12948;DHT22;6539;49.476;8.484;2023-04-03T06:02:38;6.30;99.90
12948;DHT22;6539;49.476;8.484;2023-04-03T06:05:08;6.30;99.90
12948;DHT22;6539;49.476;8.484;2023-04-03T06:07:34;6.30;99.90
12948;DHT22;6539;49.476;8.484;2023-04-03T06:10:05;6.60;99.90
12948;DHT22;6539;49.476;8.484;2023-04-03T06:12:33;7.10;99.90
12948;DHT22;6539;49.476;8.484;2023-04-03T06:15:01;8.40;99.90
12948;DHT22;6539;49.476;8.484;2023-04-03T06:17:27;8.20;99.90
12948;DHT22;6539;49.476;8.484;2023-04-03T06:19:53;8.60;99.90
12948;DHT22;6539;49.476;8.484;2023-04-03T06:22:21;9.20;99.90
12948;DHT22;6539;49.476;8.484;2023-04-03T06:24:47;9.90;99.90
12948;DHT22;6539;49.476;8.484;2023-04-03T06:27:12;10.00;99.90
12948;DHT22;6539;49.476;8.484;2023-04-03T06:29:38;10.30;99.90
12948;DHT22;6539;49.476;8.484;2023-04-03T06:32:04;10.90;99.90
12948;DHT22;6539;49.476;8.484;2023-04-03T06:34:30;10.90;99.90
12948;DHT22;6539;49.476;8.484;2023-04-03T06:36:56;11.30;99.90
12948;DHT22;6539;49.476;8.484;2023-04-03T06:39:22;11.50;99.90
12948;DHT22;6539;49.476;8.484;2023-04-03T06:41:49;11.60;99.90
12948;DHT22;6539;49.476;8.484;2023-04-03T06:44:16;12.00;99.90
12948;DHT22;6539;49.476;8.484;2023-04-03T06:46:42;12.60;99.90
12948;DHT22;6539;49.476;8.484;2023-04-03T06:49:12;12.40;99.90
12948;DHT22;6539;49.476;8.484;2023-04-03T06:51:38;12.50;99.90
12948;DHT22;6539;49.476;8.484;2023-04-03T06:54:05;12.30;99.90
12948;DHT22;6539;49.476;8.484;2023-04-03T06:56:32;12.70;99.90
12948;DHT22;6539;49.476;8.484;2023-04-03T06:58:58;12.70;99.90
12948;DHT22;6539;49.476;8.484;2023-04-03T07:01:25;12.90;99.90
12948;DHT22;6539;49.476;8.484;2023-04-03T07:03:55;12.80;99.90
12948;DHT22;6539;49.476;8.484;2023-04-03T07:06:23;13.10;99.90
12948;DHT22;6539;49.476;8.484;2023-04-03T07:08:52;13.70;99.90
12948;DHT22;6539;49.476;8.484;2023-04-03T07:11:18;13.70;99.90
12948;DHT22;6539;49.476;8.484;2023-04-03T07:13:49;13.50;99.90
12948;DHT22;6539;49.476;8.484;2023-04-03T07:16:19;13.70;99.90
12948;DHT22;6539;49.476;8.484;2023-04-03T07:18:45;13.40;99.90
12948;DHT22;6539;49.476;8.484;2023-04-03T07:21:12;13.60;99.90
12948;DHT22;6539;49.476;8.484;2023-04-03T07:23:40;14.20;99.90
12948;DHT22;6539;49.476;8.484;2023-04-03T07:26:06;14.30;99.90
12948;DHT22;6539;49.476;8.484;2023-04-03T07:28:33;14.40;99.90
12948;DHT22;6539;49.476;8.484;2023-04-03T07:31:10;14.50;99.90
12948;DHT22;6539;49.476;8.484;2023-04-03T07:33:39;14.80;99.90
12948;DHT22;6539;49.476;8.484;2023-04-03T07:36:06;14.60;99.90
12948;DHT22;6539;49.476;8.484;2023-04-03T07:38:35;14.70;99.90
12948;DHT22;6539;49.476;8.484;2023-04-03T07:41:04;14.80;99.90
12948;DHT22;6539;49.476;8.484;2023-04-03T07:43:30;14.90;99.90
12948;DHT22;6539;49.476;8.484;2023-04-03T07:45:55;15.00;99.70
12948;DHT22;6539;49.476;8.484;2023-04-03T07:48:23;15.00;99.20
12948;DHT22;6539;49.476;8.484;2023-04-03T07:50:51;15.00;99.90
12948;DHT22;6539;49.476;8.484;2023-04-03T07:53:19;14.80;98.10
12948;DHT22;6539;49.476;8.484;2023-04-03T07:55:47;14.80;98.10
12948;DHT22;6539;49.476;8.484;2023-04-03T07:58:16;14.70;98.30
12948;DHT22;6539;49.476;8.484;2023-04-03T08:00:44;14.60;98.60
12948;DHT22;6539;49.476;8.484;2023-04-03T08:03:15;15.30;99.90
12948;DHT22;6539;49.476;8.484;2023-04-03T08:05:47;15.20;96.50
12948;DHT22;6539;49.476;8.484;2023-04-03T08:08:20;15.30;95.70
12948;DHT22;6539;49.476;8.484;2023-04-03T08:10:51;15.20;95.20
12948;DHT22;6539;49.476;8.484;2023-04-03T08:13:19;15.30;95.10
12948;DHT22;6539;49.476;8.484;2023-04-03T08:15:45;15.40;94.40
12948;DHT22;6539;49.476;8.484;2023-04-03T08:18:13;15.50;94.30
12948;DHT22;6539;49.476;8.484;2023-04-03T08:20:47;15.60;93.60
12948;DHT22;6539;49.476;8.484;2023-04-03T08:23:18;15.60;92.90
12948;DHT22;6539;49.476;8.484;2023-04-03T08:25:44;15.80;91.80
12948;DHT22;6539;49.476;8.484;2023-04-03T08:28:11;16.10;90.70
12948;DHT22;6539;49.476;8.484;2023-04-03T08:30:40;16.00;89.40
12948;DHT22;6539;49.476;8.484;2023-04-03T08:33:09;16.20;88.50
12948;DHT22;6539;49.476;8.484;2023-04-03T08:35:42;16.30;85.80
12948;DHT22;6539;49.476;8.484;2023-04-03T08:38:09;16.50;85.00
12948;DHT22;6539;49.476;8.484;2023-04-03T08:40:35;16.40;82.60
12948;DHT22;6539;49.476;8.484;2023-04-03T08:46:13;16.20;82.50
12948;DHT22;6539;49.476;8.484;2023-04-03T08:48:42;16.40;81.80
12948;DHT22;6539;49.476;8.484;2023-04-03T08:51:15;16.30;78.60
12948;DHT22;6539;49.476;8.484;2023-04-03T08:56:40;16.70;82.40
12948;DHT22;6539;49.476;8.484;2023-04-03T08:59:18;16.40;75.30
12948;DHT22;6539;49.476;8.484;2023-04-03T09:01:53;16.50;74.20
12948;DHT22;6539;49.476;8.484;2023-04-03T09:04:20;16.70;72.00
12948;DHT22;6539;49.476;8.484;2023-04-03T09:06:56;16.70;69.40
12948;DHT22;6539;49.476;8.484;2023-04-03T09:09:37;16.10;70.40
12948;DHT22;6539;49.476;8.484;2023-04-03T09:12:27;16.10;71.00
12948;DHT22;6539;49.476;8.484;2023-04-03T09:15:21;15.90;70.30
12948;DHT22;6539;49.476;8.484;2023-04-03T09:18:18;16.30;71.00
12948;DHT22;6539;49.476;8.484;2023-04-03T09:23:52;16.90;64.60
12948;DHT22;6539;49.476;8.484;2023-04-03T09:29:06;16.50;63.00
12948;DHT22;6539;49.476;8.484;2023-04-03T09:31:43;16.70;61.90
12948;DHT22;6539;49.476;8.484;2023-04-03T09:37:43;16.70;59.60
12948;DHT22;6539;49.476;8.484;2023-04-03T09:42:53;16.70;67.00
12948;DHT22;6539;49.476;8.484;2023-04-03T09:45:25;16.90;59.80
12948;DHT22;6539;49.476;8.484;2023-04-03T09:48:16;16.90;59.40
12948;DHT22;6539;49.476;8.484;2023-04-03T09:55:59;17.10;59.00
12948;DHT22;6539;49.476;8.484;2023-04-03T09:58:38;17.20;57.70
12948;DHT22;6539;49.476;8.484;2023-04-03T10:01:30;16.80;58.10
12948;DHT22;6539;49.476;8.484;2023-04-03T10:04:16;16.40;57.80
12948;DHT22;6539;49.476;8.484;2023-04-03T10:06:48;16.00;57.90
12948;DHT22;6539;49.476;8.484;2023-04-03T10:12:11;16.20;58.40
12948;DHT22;6539;49.476;8.484;2023-04-03T10:15:02;16.50;58.30
12948;DHT22;6539;49.476;8.484;2023-04-03T10:17:45;16.90;58.00
12948;DHT22;6539;49.476;8.484;2023-04-03T10:23:18;16.50;58.50
12948;DHT22;6539;49.476;8.484;2023-04-03T10:26:09;16.60;58.70
12948;DHT22;6539;49.476;8.484;2023-04-03T10:32:41;17.10;58.30
12948;DHT22;6539;49.476;8.484;2023-04-03T10:48:10;16.60;53.70
12948;DHT22;6539;49.476;8.484;2023-04-03T10:50:54;16.30;53.80
12948;DHT22;6539;49.476;8.484;2023-04-03T10:53:44;16.30;54.80
12948;DHT22;6539;49.476;8.484;2023-04-03T10:56:40;16.70;54.70
12948;DHT22;6539;49.476;8.484;2023-04-03T11:02:06;16.80;54.60
12948;DHT22;6539;49.476;8.484;2023-04-03T11:04:51;16.50;61.50
12948;DHT22;6539;49.476;8.484;2023-04-03T11:07:27;16.60;55.00
12948;DHT22;6539;49.476;8.484;2023-04-03T11:10:03;16.60;54.90
12948;DHT22;6539;49.476;8.484;2023-04-03T11:12:42;16.50;54.80
12948;DHT22;6539;49.476;8.484;2023-04-03T11:15:16;16.40;54.70
12948;DHT22;6539;49.476;8.484;2023-04-03T11:20:37;16.50;54.20
12948;DHT22;6539;49.476;8.484;2023-04-03T11:23:22;16.60;54.10
12948;DHT22;6539;49.476;8.484;2023-04-03T11:25:59;16.50;54.50
12948;DHT22;6539;49.476;8.484;2023-04-03T11:28:34;16.40;54.80
12948;DHT22;6539;49.476;8.484;2023-04-03T11:34:47;14.80;56.10
12948;DHT22;6539;49.476;8.484;2023-04-03T11:37:35;14.30;56.40
12948;DHT22;6539;49.476;8.484;2023-04-03T11:43:22;14.20;56.50
12948;DHT22;6539;49.476;8.484;2023-04-03T11:45:54;13.70;66.50
12948;DHT22;6539;49.476;8.484;2023-04-03T11:53:40;13.60;57.80
12948;DHT22;6539;49.476;8.484;2023-04-03T12:04:20;13.80;58.30
12948;DHT22;6539;49.476;8.484;2023-04-03T12:06:50;13.90;59.40
12948;DHT22;6539;49.476;8.484;2023-04-03T12:11:57;14.10;58.20
12948;DHT22;6539;49.476;8.484;2023-04-03T12:14:28;13.90;67.10
12948;DHT22;6539;49.476;8.484;2023-04-03T12:16:55;14.00;58.80
12948;DHT22;6539;49.476;8.484;2023-04-03T12:19:39;13.90;59.20
12948;DHT22;6539;49.476;8.484;2023-04-03T12:22:14;14.10;58.20
12948;DHT22;6539;49.476;8.484;2023-04-03T12:24:47;14.30;57.30
12948;DHT22;6539;49.476;8.484;2023-04-03T12:27:22;14.30;56.30
12948;DHT22;6539;49.476;8.484;2023-04-03T12:32:43;14.60;55.90
12948;DHT22;6539;49.476;8.484;2023-04-03T12:35:55;14.20;64.60
12948;DHT22;6539;49.476;8.484;2023-04-03T12:41:38;14.30;57.00
12948;DHT22;6539;49.476;8.484;2023-04-03T12:47:34;14.30;57.30
12948;DHT22;6539;49.476;8.484;2023-04-03T12:50:37;14.30;67.30
12948;DHT22;6539;49.476;8.484;2023-04-03T12:53:19;14.10;58.50
12948;DHT22;6539;49.476;8.484;2023-04-03T12:55:54;14.50;63.10
12948;DHT22;6539;49.476;8.484;2023-04-03T12:58:40;14.60;55.80
12948;DHT22;6539;49.476;8.484;2023-04-03T13:01:12;14.80;55.80
12948;DHT22;6539;49.476;8.484;2023-04-03T13:03:47;14.60;56.10
12948;DHT22;6539;49.476;8.484;2023-04-03T13:06:41;14.50;56.30
12948;DHT22;6539;49.476;8.484;2023-04-03T13:09:28;14.80;56.60
12948;DHT22;6539;49.476;8.484;2023-04-03T13:14:49;15.30;55.80
12948;DHT22;6539;49.476;8.484;2023-04-03T13:17:19;15.30;55.20
12948;DHT22;6539;49.476;8.484;2023-04-03T13:19:47;15.20;63.30
12948;DHT22;6539;49.476;8.484;2023-04-03T13:22:34;15.00;55.60
12948;DHT22;6539;49.476;8.484;2023-04-03T13:25:11;14.60;55.10
12948;DHT22;6539;49.476;8.484;2023-04-03T13:27:42;14.60;56.20
12948;DHT22;6539;49.476;8.484;2023-04-03T13:30:35;14.70;56.00
12948;DHT22;6539;49.476;8.484;2023-04-03T13:33:04;14.50;57.10
12948;DHT22;6539;49.476;8.484;2023-04-03T13:35:44;14.40;58.00
12948;DHT22;6539;49.476;8.484;2023-04-03T13:38:26;14.20;58.40
12948;DHT22;6539;49.476;8.484;2023-04-03T13:41:02;14.00;59.70
12948;DHT22;6539;49.476;8.484;2023-04-03T13:43:35;13.70;58.70
12948;DHT22;6539;49.476;8.484;2023-04-03T13:46:03;13.70;59.90
12948;DHT22;6539;49.476;8.484;2023-04-03T13:48:48;13.70;58.70
12948;DHT22;6539;49.476;8.484;2023-04-03T13:54:20;14.00;59.20
12948;DHT22;6539;49.476;8.484;2023-04-03T13:56:51;14.10;57.90
12948;DHT22;6539;49.476;8.484;2023-04-03T13:59:35;14.10;57.80
12948;DHT22;6539;49.476;8.484;2023-04-03T14:04:47;13.60;66.50
12948;DHT22;6539;49.476;8.484;2023-04-03T14:07:19;13.30;58.00
12948;DHT22;6539;49.476;8.484;2023-04-03T14:09:49;13.30;58.50
12948;DHT22;6539;49.476;8.484;2023-04-03T14:12:33;13.20;57.10
12948;DHT22;6539;49.476;8.484;2023-04-03T14:15:04;13.20;57.40
12948;DHT22;6539;49.476;8.484;2023-04-03T14:17:39;13.40;56.30
12948;DHT22;6539;49.476;8.484;2023-04-03T14:20:06;13.60;57.00
12948;DHT22;6539;49.476;8.484;2023-04-03T14:22:34;13.50;56.30
12948;DHT22;6539;49.476;8.484;2023-04-03T14:25:04;13.70;55.60
12948;DHT22;6539;49.476;8.484;2023-04-03T14:27:36;13.80;55.90
12948;DHT22;6539;49.476;8.484;2023-04-03T14:30:16;13.90;55.70
12948;DHT22;6539;49.476;8.484;2023-04-03T14:32:48;13.70;55.70
12948;DHT22;6539;49.476;8.484;2023-04-03T14:35:18;13.50;55.50
12948;DHT22;6539;49.476;8.484;2023-04-03T14:37:45;13.40;55.20
12948;DHT22;6539;49.476;8.484;2023-04-03T14:40:18;13.20;54.20
12948;DHT22;6539;49.476;8.484;2023-04-03T14:42:46;13.00;53.30
12948;DHT22;6539;49.476;8.484;2023-04-03T14:45:15;13.10;53.90
12948;DHT22;6539;49.476;8.484;2023-04-03T14:47:50;13.00;53.30
12948;DHT22;6539;49.476;8.484;2023-04-03T14:50:23;12.90;53.60
12948;DHT22;6539;49.476;8.484;2023-04-03T14:52:53;12.80;54.10
12948;DHT22;6539;49.476;8.484;2023-04-03T14:55:24;12.90;54.20
12948;DHT22;6539;49.476;8.484;2023-04-03T14:57:52;12.70;54.10
12948;DHT22;6539;49.476;8.484;2023-04-03T15:00:21;12.70;54.60
12948;DHT22;6539;49.476;8.484;2023-04-03T15:02:48;12.80;54.20
12948;DHT22;6539;49.476;8.484;2023-04-03T15:05:15;12.70;52.90
12948;DHT22;6539;49.476;8.484;2023-04-03T15:07:48;12.70;53.90
12948;DHT22;6539;49.476;8.484;2023-04-03T15:10:19;12.30;62.20
12948;DHT22;6539;49.476;8.484;2023-04-03T15:12:49;12.50;54.00
12948;DHT22;6539;49.476;8.484;2023-04-03T15:15:18;12.50;53.90
12948;DHT22;6539;49.476;8.484;2023-04-03T15:17:52;12.40;54.60
12948;DHT22;6539;49.476;8.484;2023-04-03T15:20:22;12.50;55.00
12948;DHT22;6539;49.476;8.484;2023-04-03T15:22:50;12.80;55.00
12948;DHT22;6539;49.476;8.484;2023-04-03T15:25:16;12.30;53.60
12948;DHT22;6539;49.476;8.484;2023-04-03T15:27:44;12.20;54.30
12948;DHT22;6539;49.476;8.484;2023-04-03T15:30:15;12.00;53.90
12948;DHT22;6539;49.476;8.484;2023-04-03T15:32:46;12.10;54.80
12948;DHT22;6539;49.476;8.484;2023-04-03T15:35:12;12.10;54.20
12948;DHT22;6539;49.476;8.484;2023-04-03T15:37:38;12.10;54.90
12948;DHT22;6539;49.476;8.484;2023-04-03T15:40:07;12.20;54.90
12948;DHT22;6539;49.476;8.484;2023-04-03T15:42:33;12.20;60.40
12948;DHT22;6539;49.476;8.484;2023-04-03T15:45:06;12.20;52.50
12948;DHT22;6539;49.476;8.484;2023-04-03T15:47:33;12.00;51.90
12948;DHT22;6539;49.476;8.484;2023-04-03T15:49:59;12.00;51.90
12948;DHT22;6539;49.476;8.484;2023-04-03T15:52:27;11.90;52.00
12948;DHT22;6539;49.476;8.484;2023-04-03T15:54:53;11.90;62.10
12948;DHT22;6539;49.476;8.484;2023-04-03T15:57:18;11.70;62.40
12948;DHT22;6539;49.476;8.484;2023-04-03T15:59:45;11.90;54.60
12948;DHT22;6539;49.476;8.484;2023-04-03T16:02:13;11.70;54.80
12948;DHT22;6539;49.476;8.484;2023-04-03T16:04:39;11.70;54.10
12948;DHT22;6539;49.476;8.484;2023-04-03T16:07:05;11.70;55.60
12948;DHT22;6539;49.476;8.484;2023-04-03T16:09:32;11.70;54.60
12948;DHT22;6539;49.476;8.484;2023-04-03T16:12:04;11.70;55.20
12948;DHT22;6539;49.476;8.484;2023-04-03T16:14:30;11.70;54.20
12948;DHT22;6539;49.476;8.484;2023-04-03T16:16:57;11.70;54.20
12948;DHT22;6539;49.476;8.484;2023-04-03T16:19:28;11.60;62.60
12948;DHT22;6539;49.476;8.484;2023-04-03T16:21:55;11.70;54.40
12948;DHT22;6539;49.476;8.484;2023-04-03T16:24:23;11.70;54.10
12948;DHT22;6539;49.476;8.484;2023-04-03T16:26:51;11.60;54.30
12948;DHT22;6539;49.476;8.484;2023-04-03T16:29:20;11.60;54.50
12948;DHT22;6539;49.476;8.484;2023-04-03T16:31:48;11.60;54.30
12948;DHT22;6539;49.476;8.484;2023-04-03T16:34:15;11.50;54.50
12948;DHT22;6539;49.476;8.484;2023-04-03T16:36:43;11.40;54.70
12948;DHT22;6539;49.476;8.484;2023-04-03T16:41:42;11.40;54.40
12948;DHT22;6539;49.476;8.484;2023-04-03T16:44:10;11.40;55.10
12948;DHT22;6539;49.476;8.484;2023-04-03T16:46:39;11.40;54.10
12948;DHT22;6539;49.476;8.484;2023-04-03T16:49:07;11.40;54.20
12948;DHT22;6539;49.476;8.484;2023-04-03T16:51:38;11.40;54.70
12948;DHT22;6539;49.476;8.484;2023-04-03T16:54:06;11.30;55.00
12948;DHT22;6539;49.476;8.484;2023-04-03T16:56:36;11.30;55.60
12948;DHT22;6539;49.476;8.484;2023-04-03T16:59:02;11.40;55.40
12948;DHT22;6539;49.476;8.484;2023-04-03T17:01:28;11.40;56.00
12948;DHT22;6539;49.476;8.484;2023-04-03T17:03:58;11.30;55.80
12948;DHT22;6539;49.476;8.484;2023-04-03T17:06:26;11.20;56.40
12948;DHT22;6539;49.476;8.484;2023-04-03T17:08:54;11.20;56.50
12948;DHT22;6539;49.476;8.484;2023-04-03T17:11:22;11.10;55.90
12948;DHT22;6539;49.476;8.484;2023-04-03T17:13:48;11.00;55.80
12948;DHT22;6539;49.476;8.484;2023-04-03T17:16:15;10.90;55.40
12948;DHT22;6539;49.476;8.484;2023-04-03T17:18:44;10.90;55.60
12948;DHT22;6539;49.476;8.484;2023-04-03T17:21:11;11.20;69.10
12948;DHT22;6539;49.476;8.484;2023-04-03T17:23:39;11.00;59.00
12948;DHT22;6539;49.476;8.484;2023-04-03T17:26:09;11.00;56.10
12948;DHT22;6539;49.476;8.484;2023-04-03T17:28:35;11.00;56.00
12948;DHT22;6539;49.476;8.484;2023-04-03T17:31:02;10.80;55.80
12948;DHT22;6539;49.476;8.484;2023-04-03T17:33:29;10.50;62.00
12948;DHT22;6539;49.476;8.484;2023-04-03T17:35:59;10.60;56.40
12948;DHT22;6539;49.476;8.484;2023-04-03T17:38:27;10.70;56.20
12948;DHT22;6539;49.476;8.484;2023-04-03T17:40:56;10.70;56.70
12948;DHT22;6539;49.476;8.484;2023-04-03T17:43:23;10.60;56.70
12948;DHT22;6539;49.476;8.484;2023-04-03T17:45:50;10.50;57.00
12948;DHT22;6539;49.476;8.484;2023-04-03T17:48:19;10.50;57.00
12948;DHT22;6539;49.476;8.484;2023-04-03T17:50:45;10.40;57.20